createdAt,value
2019-05-12T00:01:12.652Z,3.77
2019-05-12T00:03:23.604Z,4.20
2019-05-12T00:05:34.443Z,4.50
2019-05-12T00:07:45.395Z,4.17
2019-05-12T00:09:58.192Z,4.53
2019-05-12T00:12:09.138Z,4.40
2019-05-12T00:14:19.975Z,4.37
2019-05-12T00:16:30.836Z,4.40
2019-05-12T00:18:41.725Z,4.53
2019-05-12T00:20:52.602Z,5.17
2019-05-12T00:23:22.404Z,4.50
2019-05-12T00:25:18.445Z,4.37
2019-05-12T00:27:29.410Z,4.70
2019-05-12T00:29:40.572Z,4.40
2019-05-12T00:31:51.544Z,5.10
2019-05-12T00:34:02.839Z,4.50
2019-05-12T00:36:13.680Z,4.83
2019-05-12T00:38:24.556Z,4.97
2019-05-12T00:40:38.828Z,4.97
2019-05-12T00:42:48.751Z,5.20
2019-05-12T00:44:59.620Z,5.47
2019-05-12T00:47:10.565Z,5.87
2019-05-12T00:49:21.431Z,5.53
2019-05-12T00:51:32.385Z,5.93
2019-05-12T00:53:43.561Z,5.60
2019-05-12T00:55:54.397Z,6.37
2019-05-12T00:58:08.161Z,6.47
2019-05-12T01:00:19.135Z,6.20
2019-05-12T01:02:30.022Z,6.63
2019-05-12T01:04:40.897Z,7.33
2019-05-12T01:06:52.127Z,7.60
2019-05-12T01:09:04.924Z,7.97
2019-05-12T01:11:17.814Z,7.43
2019-05-12T01:13:28.727Z,7.13
2019-05-12T01:15:39.703Z,7.30
2019-05-12T01:17:50.665Z,8.30
2019-05-12T01:20:02.839Z,8.07
2019-05-12T01:22:13.670Z,7.33
2019-05-12T01:24:24.562Z,8.03
2019-05-12T01:26:35.421Z,8.10
2019-05-12T01:28:48.308Z,8.37
2019-05-12T01:31:00.956Z,8.83
2019-05-12T01:33:11.942Z,8.90
2019-05-12T01:35:22.816Z,8.50
2019-05-12T01:37:33.680Z,9.07
2019-05-12T01:39:44.521Z,8.67
2019-05-12T01:41:55.385Z,9.70
2019-05-12T01:44:08.612Z,9.00
2019-05-12T01:46:19.088Z,9.27
2019-05-12T01:48:29.923Z,8.93
2019-05-12T01:50:40.789Z,8.57
2019-05-12T01:52:51.770Z,10.13
2019-05-12T01:55:05.113Z,9.03
2019-05-12T01:57:18.648Z,10.63
2019-05-12T01:59:28.934Z,10.03
2019-05-12T02:01:39.792Z,10.70
2019-05-12T02:03:50.640Z,10.40
2019-05-12T02:06:02.703Z,10.50
2019-05-12T02:08:21.269Z,10.23
2019-05-12T02:10:32.213Z,10.87
2019-05-12T02:12:43.207Z,10.47
2019-05-12T02:14:54.155Z,9.67
2019-05-12T02:17:05.146Z,10.90
2019-05-12T02:19:17.808Z,11.40
2019-05-12T02:21:28.744Z,9.67
2019-05-12T02:23:39.687Z,11.50
2019-05-12T02:25:51.307Z,10.97
2019-05-12T02:28:02.350Z,11.10
2019-05-12T02:30:14.394Z,10.93
2019-05-12T02:32:35.546Z,11.70
2019-05-12T02:34:38.129Z,11.00
2019-05-12T02:36:49.059Z,11.40
2019-05-12T02:38:59.903Z,12.63
2019-05-12T02:41:10.848Z,13.43
2019-05-12T02:43:24.386Z,13.17
2019-05-12T02:45:35.555Z,13.70
2019-05-12T02:47:47.076Z,14.40
2019-05-12T02:49:58.022Z,13.77
2019-05-12T02:52:09.138Z,13.40
2019-05-12T02:54:20.091Z,14.23
2019-05-12T02:56:35.216Z,13.37
2019-05-12T02:58:45.409Z,13.80
2019-05-12T03:00:56.764Z,14.17
2019-05-12T03:03:07.944Z,13.43
2019-05-12T03:05:18.876Z,14.30
2019-05-12T03:07:30.864Z,13.67
2019-05-12T03:09:44.569Z,15.03
2019-05-12T03:11:55.687Z,15.13
2019-05-12T03:14:06.696Z,14.50
2019-05-12T03:16:17.531Z,13.33
2019-05-12T03:18:28.399Z,16.40
2019-05-12T03:20:39.251Z,17.27
2019-05-12T03:22:50.108Z,17.60
2019-05-12T03:25:11.335Z,16.37
2019-05-12T03:27:14.584Z,16.03
2019-05-12T03:29:26.580Z,15.83
2019-05-12T03:31:40.742Z,15.57
2019-05-12T03:33:54.130Z,16.47
2019-05-12T03:36:08.506Z,15.70
2019-05-12T03:38:15.803Z,15.30
2019-05-12T03:40:26.659Z,14.93
2019-05-12T03:42:37.502Z,16.23
2019-05-12T03:44:48.355Z,16.63
2019-05-12T03:46:59.310Z,15.90
2019-05-12T03:49:10.168Z,16.30
2019-05-12T03:51:24.824Z,16.37
2019-05-12T03:53:35.276Z,15.50
2019-05-12T03:55:47.319Z,15.63
2019-05-12T03:57:58.436Z,15.20
2019-05-12T04:00:09.691Z,15.73
2019-05-12T04:02:20.569Z,14.87
2019-05-12T04:04:34.522Z,14.87
2019-05-12T04:06:45.316Z,15.40
2019-05-12T04:08:59.876Z,16.57
2019-05-12T04:11:09.250Z,15.67
2019-05-12T04:13:20.062Z,15.73
2019-05-12T04:15:31.045Z,15.77
2019-05-12T04:17:45.167Z,15.57
2019-05-12T04:19:56.391Z,16.10
2019-05-12T04:22:07.217Z,16.50
2019-05-12T04:24:18.062Z,17.23
2019-05-12T04:26:28.992Z,16.37
2019-05-12T04:28:39.841Z,17.43
2019-05-12T04:30:50.723Z,16.83
2019-05-12T04:33:04.435Z,17.77
2019-05-12T04:35:15.049Z,16.77
2019-05-12T04:37:26.043Z,16.67
2019-05-12T04:39:36.869Z,17.63
2019-05-12T04:41:47.752Z,17.00
2019-05-12T04:43:58.594Z,17.20
2019-05-12T04:46:09.474Z,16.37
2019-05-12T04:48:21.580Z,18.33
2019-05-12T04:50:35.317Z,17.37
2019-05-12T04:52:45.536Z,17.27
2019-05-12T04:54:56.476Z,17.33
2019-05-12T04:57:07.328Z,16.67
2019-05-12T04:59:18.167Z,16.43
2019-05-12T05:01:29.044Z,17.20
2019-05-12T05:03:40.005Z,17.17
2019-05-12T05:05:50.857Z,16.60
2019-05-12T05:08:04.367Z,17.30
2019-05-12T05:10:14.841Z,17.07
2019-05-12T05:12:25.841Z,16.30
2019-05-12T05:14:36.690Z,16.93
2019-05-12T05:16:47.559Z,17.20
2019-05-12T05:18:58.507Z,17.20
2019-05-12T05:21:09.359Z,17.50
2019-05-12T05:23:20.221Z,17.10
2019-05-12T05:25:34.062Z,15.97
2019-05-12T05:27:45.115Z,17.03
2019-05-12T05:29:56.051Z,15.70
2019-05-12T05:32:06.932Z,16.43
2019-05-12T05:34:17.777Z,15.07
2019-05-12T05:36:28.610Z,15.60
2019-05-12T05:38:39.477Z,15.50
2019-05-12T05:40:50.353Z,15.63
2019-05-12T05:43:03.560Z,14.70
2019-05-12T05:45:19.507Z,15.00
2019-05-12T05:47:28.555Z,15.63
2019-05-12T05:49:39.681Z,15.00
2019-05-12T05:51:55.108Z,14.50
2019-05-12T05:54:04.090Z,14.87
2019-05-12T05:56:18.204Z,14.33
2019-05-12T05:58:27.815Z,14.50
2019-05-12T06:00:39.585Z,14.10
2019-05-12T06:02:50.613Z,13.53
2019-05-12T06:05:04.226Z,13.33
2019-05-12T06:07:14.462Z,13.03
2019-05-12T06:09:25.368Z,12.60
2019-05-12T06:11:36.209Z,12.43
2019-05-12T06:13:47.260Z,13.00
2019-05-12T06:15:58.107Z,11.80
2019-05-12T06:18:08.963Z,12.80
2019-05-12T06:20:20.020Z,11.90
2019-05-12T06:22:30.884Z,11.67
2019-05-12T06:24:44.018Z,11.23
2019-05-12T06:27:00.218Z,12.00
2019-05-12T06:29:11.272Z,12.67
2019-05-12T06:31:25.218Z,12.03
2019-05-12T06:33:36.257Z,11.40
2019-05-12T06:35:46.056Z,11.30
2019-05-12T06:38:01.056Z,12.10
2019-05-12T06:40:09.786Z,11.37
2019-05-12T06:42:20.737Z,10.97
2019-05-12T06:44:33.486Z,11.30
2019-05-12T06:46:44.622Z,11.63
2019-05-12T06:49:00.263Z,11.30
2019-05-12T06:51:09.144Z,10.37
2019-05-12T06:53:28.415Z,10.50
2019-05-12T06:55:38.862Z,9.17
2019-05-12T06:57:50.117Z,9.33
2019-05-12T06:59:59.448Z,9.17
2019-05-12T07:02:10.418Z,8.90
2019-05-12T07:07:00.713Z,7.57
2019-05-12T07:09:16.464Z,7.63
2019-05-12T07:11:24.568Z,7.60
2019-05-12T07:13:35.572Z,7.63
2019-05-12T07:15:46.466Z,7.93
2019-05-12T07:17:59.192Z,7.50
2019-05-12T07:20:10.428Z,7.33
2019-05-12T07:22:23.394Z,7.40
2019-05-12T07:24:34.253Z,7.63
2019-05-12T07:26:47.961Z,7.27
2019-05-12T07:28:57.942Z,7.57
2019-05-12T07:31:08.888Z,7.10
2019-05-12T07:33:19.723Z,6.90
2019-05-12T07:35:33.697Z,6.33
2019-05-12T07:37:45.355Z,6.07
2019-05-12T07:39:56.233Z,6.00
2019-05-12T07:42:07.289Z,5.50
2019-05-12T07:44:22.223Z,5.57
2019-05-12T07:46:34.257Z,4.50
2019-05-12T07:48:50.712Z,6.17
2019-05-12T07:51:00.604Z,6.00
2019-05-12T07:53:10.918Z,6.57
2019-05-12T07:55:23.680Z,6.40
2019-05-12T07:57:40.804Z,6.50
2019-05-12T07:59:47.297Z,5.70
2019-05-12T08:01:58.306Z,5.60
2019-05-12T08:04:09.139Z,6.60
2019-05-12T08:06:20.121Z,5.97
2019-05-12T08:08:30.984Z,6.40
2019-05-12T08:10:44.145Z,6.03
2019-05-12T08:12:58.947Z,5.93
2019-05-12T08:15:09.831Z,5.77
2019-05-12T08:17:20.877Z,5.43
2019-05-12T08:19:33.778Z,5.70
2019-05-12T08:21:49.164Z,6.40
2019-05-12T08:23:57.415Z,6.53
2019-05-12T08:26:12.051Z,6.20
2019-05-12T08:28:27.954Z,8.93
2019-05-12T08:30:40.363Z,7.27
2019-05-12T08:32:48.179Z,7.23
2019-05-12T08:34:59.132Z,6.40
2019-05-12T08:37:10.012Z,5.87
2019-05-12T08:39:23.620Z,5.57
2019-05-12T08:41:34.280Z,5.63
2019-05-12T08:43:48.818Z,5.17
2019-05-12T08:46:00.291Z,5.30
2019-05-12T08:48:17.060Z,3.80
2019-05-12T08:50:31.515Z,3.60
2019-05-12T08:52:41.355Z,4.67
2019-05-12T08:54:49.550Z,4.90
2019-05-12T08:57:01.271Z,5.07
2019-05-12T08:59:15.574Z,5.10
2019-05-12T09:01:30.463Z,4.93
2019-05-12T09:03:38.382Z,5.17
2019-05-12T09:05:49.552Z,5.10
2019-05-12T09:08:00.645Z,5.07
2019-05-12T09:10:14.310Z,5.47
2019-05-12T09:12:25.323Z,5.57
2019-05-12T09:14:41.303Z,4.93
2019-05-12T09:16:55.956Z,4.77
2019-05-12T09:19:04.646Z,4.73
2019-05-12T09:21:15.150Z,4.50
2019-05-12T09:23:26.009Z,4.80
2019-05-12T09:25:39.270Z,5.10
2019-05-12T09:27:49.758Z,4.90
2019-05-12T09:30:08.299Z,5.67
2019-05-12T09:32:14.524Z,5.73
2019-05-12T09:34:25.690Z,4.63
2019-05-12T09:36:38.497Z,4.43
2019-05-12T09:38:55.852Z,5.07
2019-05-12T09:41:03.256Z,4.60
2019-05-12T09:43:14.996Z,6.30
2019-05-12T09:45:26.483Z,6.23
2019-05-12T09:47:37.359Z,6.03
2019-05-12T09:49:48.222Z,5.10
2019-05-12T09:51:59.096Z,5.30
2019-05-12T09:54:09.944Z,5.10
2019-05-12T09:56:20.921Z,6.23
2019-05-12T09:58:33.640Z,5.73
2019-05-12T10:00:44.753Z,5.10
2019-05-12T10:02:59.022Z,4.63
2019-05-12T10:05:08.684Z,4.83
2019-05-12T10:07:19.587Z,4.63
2019-05-12T10:09:30.451Z,4.83
2019-05-12T10:11:41.338Z,4.00
2019-05-12T10:13:54.202Z,4.00
2019-05-12T10:16:08.800Z,4.03
2019-05-12T10:18:17.937Z,4.27
2019-05-12T10:20:29.074Z,4.27
2019-05-12T10:22:43.823Z,3.80
2019-05-12T10:24:57.847Z,3.83
2019-05-12T10:27:07.154Z,3.80
2019-05-12T10:29:20.785Z,4.00
2019-05-12T10:31:35.592Z,4.23
2019-05-12T10:33:43.545Z,3.90
2019-05-12T10:35:54.422Z,3.30
2019-05-12T10:38:09.169Z,4.27
2019-05-12T10:40:18.531Z,4.27
2019-05-12T10:42:29.396Z,3.67
2019-05-12T10:44:40.980Z,3.80
2019-05-12T10:46:53.936Z,3.23
2019-05-12T10:49:04.862Z,3.70
2019-05-12T10:51:15.747Z,3.50
2019-05-12T10:53:26.596Z,3.80
2019-05-12T10:55:37.494Z,3.97
2019-05-12T10:57:52.939Z,3.80
2019-05-12T11:00:04.203Z,4.20
2019-05-12T11:02:15.011Z,3.80
2019-05-12T11:04:35.563Z,3.93
2019-05-12T11:06:39.617Z,4.10
2019-05-12T11:08:51.527Z,3.43
2019-05-12T11:11:04.175Z,3.77
2019-05-12T11:13:18.052Z,2.77
2019-05-12T11:15:28.195Z,2.30
2019-05-12T11:17:53.508Z,2.23
2019-05-12T11:20:04.526Z,1.97
2019-05-12T11:22:15.410Z,1.80
2019-05-12T11:24:26.267Z,2.00
2019-05-12T11:26:37.219Z,1.77
2019-05-12T11:28:48.093Z,1.97
2019-05-12T11:30:59.151Z,2.07
2019-05-12T11:33:10.027Z,1.90
2019-05-12T11:35:20.957Z,1.70
2019-05-12T11:37:33.814Z,1.90
2019-05-12T11:39:47.524Z,2.03
2019-05-12T11:41:57.614Z,2.30
2019-05-12T11:44:08.482Z,2.30
2019-05-12T11:46:19.418Z,2.00
2019-05-12T11:48:30.413Z,2.23
2019-05-12T11:50:47.798Z,2.40
2019-05-12T11:52:54.384Z,3.20
2019-05-12T11:55:05.696Z,2.87
2019-05-12T11:57:20.078Z,1.70
2019-05-12T11:59:31.333Z,1.73
2019-05-12T12:01:45.611Z,1.43
2019-05-12T12:03:55.708Z,1.33
2019-05-12T12:06:06.558Z,1.83
2019-05-12T12:08:17.450Z,1.37
2019-05-12T12:10:29.269Z,1.70
2019-05-12T12:12:45.324Z,1.40
2019-05-12T12:14:54.099Z,1.50
2019-05-12T12:17:05.192Z,2.40
2019-05-12T12:19:16.061Z,2.20
2019-05-12T12:21:26.910Z,2.10
2019-05-12T12:23:40.913Z,2.10
2019-05-12T12:25:50.621Z,2.10
2019-05-12T12:28:01.566Z,2.10
2019-05-12T12:30:19.254Z,1.80
2019-05-12T12:32:27.619Z,1.93
2019-05-12T12:34:38.606Z,2.20
2019-05-12T12:36:49.564Z,1.77
2019-05-12T12:39:00.427Z,1.83
2019-05-12T12:41:13.204Z,1.53
2019-05-12T12:43:24.797Z,1.80
2019-05-12T12:45:50.025Z,1.80
2019-05-12T12:48:00.991Z,2.20
2019-05-12T12:50:13.316Z,1.80
2019-05-12T12:52:24.473Z,1.50
2019-05-12T12:54:35.346Z,1.70
2019-05-12T12:56:46.238Z,1.53
2019-05-12T12:59:04.140Z,2.00
2019-05-12T13:01:14.123Z,1.57
2019-05-12T13:03:25.745Z,1.80
2019-05-12T13:05:35.520Z,1.40
2019-05-12T13:07:46.394Z,1.30
2019-05-12T13:10:07.408Z,1.70
2019-05-12T13:12:15.862Z,2.07
2019-05-12T13:14:23.406Z,1.80
2019-05-12T13:16:35.619Z,1.67
2019-05-12T13:18:46.523Z,1.20
2019-05-12T13:20:58.144Z,1.50
2019-05-12T13:23:09.170Z,1.47
2019-05-12T13:25:20.073Z,1.60
2019-05-12T13:27:34.124Z,1.23
2019-05-12T13:29:43.698Z,1.60
2019-05-12T13:31:54.633Z,1.40
2019-05-12T13:34:05.619Z,1.20
2019-05-12T13:36:16.585Z,1.20
2019-05-12T13:38:30.478Z,1.17
2019-05-12T13:40:40.217Z,1.10
2019-05-12T13:42:51.292Z,1.13
2019-05-12T13:45:04.258Z,1.00
2019-05-12T13:47:15.134Z,1.00
2019-05-12T13:49:30.091Z,1.07
2019-05-12T13:51:43.114Z,1.00
2019-05-12T13:53:51.683Z,1.13
2019-05-12T13:56:04.699Z,0.93
2019-05-12T13:58:15.729Z,0.80
2019-05-12T14:00:26.677Z,1.20
2019-05-12T14:02:37.575Z,1.03
2019-05-12T14:04:48.530Z,1.07
2019-05-12T14:06:59.501Z,1.00
2019-05-12T14:09:10.368Z,1.07
2019-05-12T14:11:23.655Z,0.83
2019-05-12T14:13:34.028Z,1.10
2019-05-12T14:15:44.928Z,0.80
2019-05-12T14:17:55.773Z,1.23
2019-05-12T14:20:09.257Z,0.90
2019-05-12T14:22:24.441Z,1.00
2019-05-12T14:24:41.745Z,0.80
2019-05-12T14:26:49.273Z,1.30
2019-05-12T14:28:58.191Z,1.97
2019-05-12T14:31:09.141Z,0.80
2019-05-12T14:33:20.003Z,0.60
2019-05-12T14:35:32.610Z,0.87
2019-05-12T14:37:45.935Z,0.70
2019-05-12T14:39:58.633Z,0.80
2019-05-12T14:42:09.471Z,0.77
2019-05-12T14:44:20.347Z,1.03
2019-05-12T14:46:33.313Z,1.10
2019-05-12T14:48:46.448Z,1.00
2019-05-12T14:50:56.926Z,0.90
2019-05-12T14:53:07.776Z,1.30
2019-05-12T14:55:18.623Z,1.30
2019-05-12T14:57:34.637Z,1.30
2019-05-12T14:59:42.292Z,1.40
2019-05-12T15:01:59.082Z,1.30
2019-05-12T15:04:05.913Z,1.00
2019-05-12T15:06:19.425Z,0.90
2019-05-12T15:08:36.292Z,1.10
2019-05-12T15:10:42.519Z,0.83
2019-05-12T15:12:54.397Z,0.83
2019-05-12T15:15:09.199Z,0.83
2019-05-12T15:17:22.447Z,1.23
2019-05-12T15:19:33.426Z,1.13
2019-05-12T15:21:44.449Z,1.27
2019-05-12T15:23:55.304Z,1.07
2019-05-12T15:26:09.618Z,1.10
2019-05-12T15:28:18.930Z,1.10
2019-05-12T15:30:29.905Z,1.10
2019-05-12T15:32:40.765Z,1.13
2019-05-12T15:34:51.605Z,0.93
2019-05-12T15:37:04.161Z,0.70
2019-05-12T15:39:15.286Z,0.90
2019-05-12T15:41:26.169Z,0.93
2019-05-12T15:43:44.209Z,1.20
2019-05-12T15:45:55.302Z,1.20
2019-05-12T15:48:04.050Z,1.33
2019-05-12T15:50:15.436Z,2.20
2019-05-12T15:52:29.965Z,1.10
2019-05-12T15:54:45.819Z,1.00
2019-05-12T15:56:55.736Z,0.93
2019-05-12T15:59:06.659Z,0.90
2019-05-12T16:01:17.527Z,0.87
2019-05-12T16:03:28.371Z,1.00
2019-05-12T16:05:39.242Z,1.00
2019-05-12T16:07:50.127Z,1.10
2019-05-12T16:10:01.070Z,1.10
2019-05-12T16:12:19.997Z,1.10
2019-05-12T16:14:24.784Z,0.80
2019-05-12T16:16:42.501Z,1.10
2019-05-12T16:18:50.683Z,1.30
2019-05-12T16:21:05.101Z,0.93
2019-05-12T16:23:25.104Z,1.10
2019-05-12T16:25:30.641Z,1.13
2019-05-12T16:27:44.292Z,1.10
2019-05-12T16:29:54.572Z,1.00
2019-05-12T16:32:05.655Z,1.10
2019-05-12T16:34:16.507Z,1.00
2019-05-12T16:36:27.491Z,0.97
2019-05-12T16:38:38.571Z,1.03
2019-05-12T16:40:49.994Z,1.50
2019-05-12T16:43:00.901Z,1.33
2019-05-12T16:45:14.304Z,1.53
2019-05-12T16:47:29.044Z,1.30
2019-05-12T16:49:37.936Z,1.20
2019-05-12T16:51:48.795Z,1.10
2019-05-12T16:53:59.838Z,1.30
2019-05-12T16:56:10.823Z,1.00
2019-05-12T16:58:24.510Z,1.00
2019-05-12T17:00:39.571Z,1.17
2019-05-12T17:02:55.194Z,0.90
2019-05-12T17:05:00.309Z,1.00
2019-05-12T17:07:17.342Z,0.83
2019-05-12T17:09:24.131Z,0.77
2019-05-12T17:11:37.217Z,1.00
2019-05-12T17:13:56.816Z,0.93
2019-05-12T17:16:00.689Z,1.30
2019-05-12T17:18:13.605Z,1.10
2019-05-12T17:20:24.328Z,0.90
2019-05-12T17:22:35.182Z,0.90
2019-05-12T17:24:46.081Z,0.90
2019-05-12T17:26:56.925Z,0.90
2019-05-12T17:29:08.043Z,0.90
2019-05-12T17:31:19.050Z,0.90
2019-05-12T17:33:30.047Z,0.83
2019-05-12T17:35:41.067Z,0.93
2019-05-12T17:37:53.550Z,0.90
2019-05-12T17:40:09.337Z,1.07
2019-05-12T17:42:21.504Z,0.80
2019-05-12T17:44:31.286Z,0.80
2019-05-12T17:46:44.232Z,0.80
2019-05-12T17:48:55.154Z,0.80
2019-05-12T17:51:06.120Z,1.10
2019-05-12T17:53:17.884Z,0.97
2019-05-12T17:55:28.802Z,1.10
2019-05-12T17:57:39.789Z,1.03
2019-05-12T17:59:50.838Z,1.03
2019-05-12T18:02:05.775Z,0.80
2019-05-12T18:04:14.689Z,1.40
2019-05-12T18:06:29.560Z,1.10
2019-05-12T18:08:38.847Z,1.10
2019-05-12T18:10:49.988Z,0.80
2019-05-12T18:13:00.975Z,1.07
2019-05-12T18:15:14.692Z,1.03
2019-05-12T18:17:24.993Z,0.80
2019-05-12T18:19:35.865Z,1.13
2019-05-12T18:21:47.014Z,1.20
2019-05-12T18:24:00.478Z,1.17
2019-05-12T18:26:12.342Z,1.10
2019-05-12T18:28:27.546Z,0.90
2019-05-12T18:30:36.461Z,1.20
2019-05-12T18:32:47.364Z,1.10
2019-05-12T18:34:58.318Z,1.13
2019-05-12T18:37:09.269Z,0.97
2019-05-12T18:39:20.122Z,1.03
2019-05-12T18:41:33.537Z,1.20
2019-05-12T18:43:43.863Z,1.03
2019-05-12T18:45:58.872Z,1.10
2019-05-12T18:48:16.778Z,1.07
2019-05-12T18:50:26.321Z,1.60
2019-05-12T18:52:39.279Z,1.57
2019-05-12T18:54:52.084Z,1.00
2019-05-12T18:57:04.861Z,1.23
2019-05-12T18:59:16.071Z,1.00
2019-05-12T19:01:24.824Z,1.10
2019-05-12T19:03:47.129Z,0.90
2019-05-12T19:05:48.498Z,1.10
2019-05-12T19:07:59.380Z,1.20
2019-05-12T19:10:10.454Z,1.40
2019-05-12T19:12:31.132Z,1.00
2019-05-12T19:14:37.088Z,1.30
2019-05-12T19:16:47.312Z,1.23
2019-05-12T19:18:58.168Z,1.40
2019-05-12T19:21:10.218Z,1.20
2019-05-12T19:23:26.849Z,1.40
2019-05-12T19:25:38.718Z,1.33
2019-05-12T19:27:54.977Z,1.20
2019-05-12T19:30:00.453Z,1.30
2019-05-12T19:32:11.326Z,1.43
2019-05-12T19:34:25.795Z,1.77
2019-05-12T19:36:38.126Z,1.60
2019-05-12T19:38:47.779Z,1.30
2019-05-12T19:41:00.797Z,1.40
2019-05-12T19:43:11.487Z,1.50
2019-05-12T19:45:24.943Z,1.60
2019-05-12T19:47:38.346Z,1.33
2019-05-12T19:49:50.637Z,1.50
2019-05-12T19:52:03.428Z,1.33
2019-05-12T19:54:14.086Z,1.67
2019-05-12T19:56:34.649Z,1.60
2019-05-12T19:58:37.945Z,1.40
2019-05-12T20:00:48.901Z,1.50
2019-05-12T20:02:59.781Z,1.40
2019-05-12T20:05:14.287Z,1.57
2019-05-12T20:07:23.815Z,1.50
2019-05-12T20:09:34.800Z,1.30
2019-05-12T20:11:45.658Z,1.77
2019-05-12T20:13:56.536Z,1.30
2019-05-12T20:16:11.529Z,1.47
2019-05-12T20:18:20.372Z,1.70
2019-05-12T20:20:36.709Z,1.50
2019-05-12T20:22:44.281Z,1.33
2019-05-12T20:24:55.152Z,1.70
2019-05-12T20:27:10.528Z,1.40
2019-05-12T20:29:24.557Z,1.50
2019-05-12T20:31:35.518Z,1.30
2019-05-12T20:33:44.792Z,1.27
2019-05-12T20:35:55.747Z,1.40
2019-05-12T20:38:06.597Z,1.53
2019-05-12T20:40:17.678Z,1.37
2019-05-12T20:42:33.991Z,1.80
2019-05-12T20:44:43.613Z,1.63
2019-05-12T20:46:56.252Z,1.93
2019-05-12T20:49:11.877Z,1.80
2019-05-12T20:51:20.339Z,1.60
2019-05-12T20:53:33.663Z,2.90
2019-05-12T20:55:44.377Z,2.13
2019-05-12T20:57:56.917Z,1.80
2019-05-12T21:00:08.748Z,1.70
2019-05-12T21:02:19.640Z,1.90
2019-05-12T21:04:33.338Z,2.00
2019-05-12T21:06:43.337Z,1.70
2019-05-12T21:08:56.438Z,1.70
2019-05-12T21:11:06.951Z,1.80
2019-05-12T21:13:20.352Z,1.90
2019-05-12T21:15:37.174Z,1.80
2019-05-12T21:17:46.831Z,2.00
2019-05-12T21:19:59.400Z,1.93
2019-05-12T21:22:08.971Z,1.87
2019-05-12T21:24:19.829Z,1.80
2019-05-12T21:26:34.716Z,1.90
2019-05-12T21:28:48.086Z,1.93
2019-05-12T21:30:56.269Z,2.03
2019-05-12T21:33:07.336Z,1.80
2019-05-12T21:35:22.501Z,1.83
2019-05-12T21:37:30.946Z,1.90
2019-05-12T21:39:46.816Z,1.90
2019-05-12T21:41:55.004Z,2.17
2019-05-12T21:44:10.970Z,2.20
2019-05-12T21:46:19.064Z,1.73
2019-05-12T21:48:29.893Z,2.00
2019-05-12T21:50:40.964Z,1.93
2019-05-12T21:52:56.509Z,2.40
2019-05-12T21:55:06.396Z,2.10
2019-05-12T21:57:19.269Z,2.13
2019-05-12T21:59:37.745Z,2.30
2019-05-12T22:01:45.839Z,2.20
2019-05-12T22:04:02.033Z,2.20
2019-05-12T22:06:16.713Z,2.00
2019-05-12T22:08:25.405Z,2.23
2019-05-12T22:10:38.349Z,2.00
2019-05-12T22:12:49.217Z,1.97
2019-05-12T22:15:00.096Z,1.90
2019-05-12T22:17:13.513Z,2.10
2019-05-12T22:19:23.846Z,1.77
2019-05-12T22:21:35.806Z,2.10
2019-05-12T22:23:51.130Z,1.97
2019-05-12T22:26:00.537Z,2.00
2019-05-12T22:28:13.477Z,2.10
2019-05-12T22:30:25.244Z,2.20
2019-05-12T22:32:36.166Z,2.03
2019-05-12T22:34:47.020Z,2.40
2019-05-12T22:36:59.200Z,1.90
2019-05-12T22:39:10.446Z,1.83
2019-05-12T22:41:21.285Z,1.80
2019-05-12T22:43:41.090Z,2.23
2019-05-12T22:45:49.210Z,2.13
2019-05-12T22:47:59.218Z,2.30
2019-05-12T22:50:10.460Z,2.23
2019-05-12T22:52:23.419Z,1.70
2019-05-12T22:54:34.118Z,1.60
2019-05-12T22:56:49.494Z,2.00
2019-05-12T22:58:59.987Z,1.90
2019-05-12T23:01:14.479Z,1.60
2019-05-12T23:03:25.345Z,2.27
2019-05-12T23:05:36.178Z,2.10
2019-05-12T23:07:47.115Z,1.93
2019-05-12T23:10:00.470Z,1.90
2019-05-12T23:12:18.132Z,2.20
2019-05-12T23:14:25.078Z,1.90
2019-05-12T23:16:36.152Z,1.90
2019-05-12T23:18:47.095Z,1.90
2019-05-12T23:20:57.951Z,1.77
2019-05-12T23:23:13.883Z,1.73
2019-05-12T23:25:21.797Z,1.60
2019-05-12T23:27:33.473Z,1.50
2019-05-12T23:29:44.517Z,1.50
2019-05-12T23:32:00.589Z,1.70
2019-05-12T23:34:12.394Z,1.60
2019-05-12T23:36:35.001Z,1.57
2019-05-12T23:38:34.030Z,1.70
2019-05-12T23:40:45.017Z,1.60
2019-05-12T23:42:55.860Z,1.60
2019-05-12T23:45:08.618Z,1.80
2019-05-12T23:47:19.452Z,1.40
2019-05-12T23:49:30.301Z,1.90
2019-05-12T23:51:41.180Z,1.80
2019-05-12T23:53:52.064Z,1.30
2019-05-12T23:56:03.728Z,1.80
2019-05-12T23:58:14.898Z,1.57
